createdAt,value
2022-10-05T00:00:56.822Z,10.07
2022-10-05T00:03:31.513Z,9.91
2022-10-05T00:05:57.947Z,10.02
2022-10-05T00:08:30.517Z,10.09
2022-10-05T00:10:56.860Z,10.20
2022-10-05T00:13:28.792Z,10.19
2022-10-05T00:16:04.686Z,10.26
2022-10-05T00:18:32.409Z,10.25
2022-10-05T00:20:59.518Z,10.30
2022-10-05T00:23:30.328Z,10.27
2022-10-05T00:26:11.724Z,10.25
2022-10-05T00:28:38.169Z,10.26
2022-10-05T00:31:15.002Z,10.22
2022-10-05T00:33:41.377Z,10.15
2022-10-05T00:36:07.896Z,10.26
2022-10-05T00:38:34.242Z,10.23
2022-10-05T00:41:06.980Z,10.18
2022-10-05T00:44:22.851Z,10.10
2022-10-05T00:46:55.031Z,10.13
2022-10-05T00:50:12.266Z,10.13
2022-10-05T00:53:06.069Z,10.10
2022-10-05T00:55:40.861Z,10.02
2022-10-05T00:58:25.327Z,9.98
2022-10-05T01:01:03.972Z,9.82
2022-10-05T01:04:00.979Z,9.85
2022-10-05T01:06:36.013Z,9.93
2022-10-05T01:09:12.943Z,9.87
2022-10-05T01:12:01.440Z,9.95
2022-10-05T01:14:46.402Z,9.90
2022-10-05T01:17:23.719Z,9.83
2022-10-05T01:20:14.191Z,9.80
2022-10-05T01:23:03.279Z,9.80
2022-10-05T01:25:48.421Z,9.84
2022-10-05T01:28:19.685Z,9.90
2022-10-05T01:31:02.110Z,9.84
2022-10-05T01:33:35.808Z,9.79
2022-10-05T01:36:21.506Z,9.83
2022-10-05T01:39:07.228Z,9.94
2022-10-05T01:42:02.673Z,10.17
2022-10-05T01:44:36.977Z,10.19
2022-10-05T01:47:21.820Z,9.98
2022-10-05T01:50:02.334Z,10.15
2022-10-05T01:52:56.064Z,9.93
2022-10-05T01:55:48.839Z,9.83
2022-10-05T01:58:41.449Z,10.02
2022-10-05T02:01:27.565Z,10.10
2022-10-05T02:04:10.441Z,9.98
2022-10-05T02:06:41.328Z,10.00
2022-10-05T02:09:15.010Z,9.98
2022-10-05T02:11:47.902Z,9.86
2022-10-05T02:14:22.483Z,9.74
2022-10-05T02:16:51.257Z,9.76
2022-10-05T02:19:36.089Z,9.72
2022-10-05T02:22:07.305Z,9.80
2022-10-05T02:24:46.001Z,9.79
2022-10-05T02:27:17.316Z,9.82
2022-10-05T02:29:47.963Z,9.84
2022-10-05T02:32:21.530Z,9.87
2022-10-05T02:34:47.942Z,9.91
2022-10-05T02:37:20.117Z,9.94
2022-10-05T02:40:38.852Z,9.90
2022-10-05T02:43:13.853Z,10.02
2022-10-05T02:46:03.578Z,10.11
2022-10-05T02:49:00.324Z,10.18
2022-10-05T02:51:36.319Z,10.16
2022-10-05T02:54:25.357Z,10.21
2022-10-05T02:57:10.889Z,10.21
2022-10-05T02:59:51.747Z,10.30
2022-10-05T03:02:23.312Z,10.38
2022-10-05T03:04:55.820Z,10.45
2022-10-05T03:07:50.329Z,10.50
2022-10-05T03:10:28.663Z,10.60
2022-10-05T03:13:21.959Z,10.67
2022-10-05T03:15:54.568Z,10.72
2022-10-05T03:18:39.133Z,10.67
2022-10-05T03:21:33.658Z,10.61
2022-10-05T03:24:18.079Z,10.67
2022-10-05T03:27:03.071Z,10.64
2022-10-05T03:29:35.719Z,10.65
2022-10-05T03:32:18.079Z,10.65
2022-10-05T03:34:50.437Z,10.68
2022-10-05T03:37:26.291Z,10.66
2022-10-05T03:40:28.267Z,10.68
2022-10-05T03:43:11.821Z,10.69
2022-10-05T03:46:08.561Z,10.71
2022-10-05T03:49:05.739Z,10.69
2022-10-05T03:51:39.546Z,10.68
2022-10-05T03:54:15.229Z,10.79
2022-10-05T03:56:50.475Z,10.82
2022-10-05T03:59:34.571Z,11.00
2022-10-05T04:02:05.107Z,10.89
2022-10-05T04:04:46.854Z,10.89
2022-10-05T04:07:32.005Z,10.92
2022-10-05T04:10:00.611Z,10.90
2022-10-05T04:12:37.017Z,10.99
2022-10-05T04:15:18.716Z,11.05
2022-10-05T04:18:05.418Z,10.98
2022-10-05T04:20:39.783Z,11.06
2022-10-05T04:23:21.390Z,10.97
2022-10-05T04:25:56.719Z,11.00
2022-10-05T04:28:38.158Z,10.98
2022-10-05T04:31:06.812Z,11.13
2022-10-05T04:33:33.177Z,11.13
2022-10-05T04:36:02.254Z,11.08
2022-10-05T04:38:47.693Z,11.01
2022-10-05T04:41:32.829Z,11.04
2022-10-05T04:44:17.640Z,10.92
2022-10-05T04:47:12.161Z,10.82
2022-10-05T04:50:06.502Z,10.82
2022-10-05T04:53:01.983Z,10.73
2022-10-05T04:55:36.137Z,10.75
2022-10-05T04:58:17.273Z,10.82
2022-10-05T05:01:12.750Z,10.71
2022-10-05T05:04:17.651Z,10.51
2022-10-05T05:07:02.859Z,10.52
2022-10-05T05:09:47.886Z,10.42
2022-10-05T05:12:45.390Z,10.70
2022-10-05T05:15:47.087Z,10.58
2022-10-05T05:18:35.226Z,10.37
2022-10-05T05:21:20.152Z,10.33
2022-10-05T05:23:53.111Z,10.35
2022-10-05T05:26:49.877Z,10.30
2022-10-05T05:29:40.470Z,10.32
2022-10-05T05:32:22.025Z,10.39
2022-10-05T05:35:24.889Z,10.36
2022-10-05T05:37:57.822Z,10.50
2022-10-05T05:40:40.070Z,10.47
2022-10-05T05:43:30.808Z,10.47
2022-10-05T05:46:05.787Z,10.55
2022-10-05T05:48:40.064Z,10.62
2022-10-05T05:51:18.430Z,10.71
2022-10-05T05:53:48.809Z,10.79
2022-10-05T05:56:20.495Z,10.90
2022-10-05T05:58:54.405Z,11.02
2022-10-05T06:01:33.372Z,11.04
2022-10-05T06:04:09.014Z,11.10
2022-10-05T06:06:40.995Z,11.22
2022-10-05T06:09:30.894Z,11.30
2022-10-05T06:12:03.388Z,11.32
2022-10-05T06:14:37.250Z,11.49
2022-10-05T06:17:16.457Z,11.53
2022-10-05T06:19:44.621Z,11.66
2022-10-05T06:22:35.975Z,11.73
2022-10-05T06:25:22.591Z,11.94
2022-10-05T06:28:18.355Z,12.12
2022-10-05T06:31:04.222Z,12.21
2022-10-05T06:34:05.725Z,12.29
2022-10-05T06:36:52.701Z,12.42
2022-10-05T06:39:39.133Z,12.46
2022-10-05T06:42:14.249Z,12.65
2022-10-05T06:44:49.162Z,12.60
2022-10-05T06:47:21.539Z,12.56
2022-10-05T06:49:56.077Z,12.61
2022-10-05T06:52:31.283Z,12.61
2022-10-05T06:55:14.358Z,12.69
2022-10-05T06:57:45.498Z,12.85
2022-10-05T07:00:20.918Z,12.81
2022-10-05T07:02:53.256Z,12.81
2022-10-05T07:05:42.683Z,12.84
2022-10-05T07:08:23.793Z,13.04
2022-10-05T07:10:58.547Z,13.00
2022-10-05T07:13:54.610Z,13.05
2022-10-05T07:16:48.808Z,13.12
2022-10-05T07:19:45.987Z,13.25
2022-10-05T07:22:34.472Z,13.22
2022-10-05T07:25:13.171Z,13.31
2022-10-05T07:28:03.399Z,13.35
2022-10-05T07:30:37.122Z,13.46
2022-10-05T07:33:13.429Z,13.49
2022-10-05T07:35:44.384Z,13.57
2022-10-05T07:38:24.966Z,13.71
2022-10-05T07:41:04.617Z,13.59
2022-10-05T07:44:00.465Z,13.70
2022-10-05T07:46:35.486Z,13.85
2022-10-05T07:49:10.643Z,14.00
2022-10-05T07:51:40.707Z,14.08
2022-10-05T07:54:15.631Z,14.20
2022-10-05T07:56:43.783Z,14.27
2022-10-05T07:59:32.448Z,14.41
2022-10-05T08:02:32.197Z,14.33
2022-10-05T08:05:05.041Z,14.60
2022-10-05T08:07:34.711Z,14.58
2022-10-05T08:10:35.915Z,14.46
2022-10-05T08:13:31.387Z,14.64
2022-10-05T08:16:01.527Z,14.68
2022-10-05T08:18:53.527Z,14.82
2022-10-05T08:21:26.533Z,14.59
2022-10-05T08:24:30.325Z,14.66
2022-10-05T08:27:06.270Z,14.84
2022-10-05T08:29:41.753Z,14.94
2022-10-05T08:32:18.642Z,15.13
2022-10-05T08:34:57.126Z,15.00
2022-10-05T08:37:30.419Z,14.99
2022-10-05T08:40:22.297Z,14.88
2022-10-05T08:43:35.012Z,14.99
2022-10-05T08:46:32.355Z,14.90
2022-10-05T08:49:16.962Z,14.98
2022-10-05T08:51:57.034Z,14.98
2022-10-05T08:54:51.677Z,15.03
2022-10-05T08:57:56.327Z,14.86
2022-10-05T09:00:24.665Z,14.80
2022-10-05T09:03:12.715Z,14.57
2022-10-05T09:06:00.393Z,14.53
2022-10-05T09:08:58.315Z,14.58
2022-10-05T09:11:30.766Z,14.54
2022-10-05T09:14:21.904Z,14.50
2022-10-05T09:17:14.486Z,14.44
2022-10-05T09:19:52.322Z,14.66
2022-10-05T09:22:30.805Z,14.62
2022-10-05T09:25:17.296Z,14.63
2022-10-05T09:28:24.070Z,14.94
2022-10-05T09:30:58.078Z,15.04
2022-10-05T09:33:42.440Z,14.97
2022-10-05T09:36:28.290Z,15.15
2022-10-05T09:39:34.512Z,15.46
2022-10-05T09:42:18.412Z,15.36
2022-10-05T09:45:11.574Z,15.46
2022-10-05T09:48:05.801Z,15.58
2022-10-05T09:50:38.029Z,15.63
2022-10-05T09:53:10.751Z,15.59
2022-10-05T09:55:47.595Z,15.74
2022-10-05T09:58:41.567Z,15.81
2022-10-05T10:01:44.904Z,15.95
2022-10-05T10:04:41.852Z,16.06
2022-10-05T10:07:16.988Z,16.06
2022-10-05T10:10:04.560Z,16.04
2022-10-05T10:12:46.754Z,15.99
2022-10-05T10:15:38.475Z,16.07
2022-10-05T10:18:27.964Z,15.96
2022-10-05T10:21:09.494Z,16.08
2022-10-05T10:23:56.890Z,16.15
2022-10-05T10:26:47.727Z,16.11
2022-10-05T10:29:33.564Z,16.23
2022-10-05T10:32:37.550Z,16.08
2022-10-05T10:38:38.244Z,15.94
2022-10-05T10:41:32.338Z,15.88
2022-10-05T10:44:13.642Z,15.97
2022-10-05T10:47:18.994Z,16.05
2022-10-05T10:50:23.050Z,16.00
2022-10-05T10:53:12.492Z,16.16
2022-10-05T10:56:00.434Z,15.99
2022-10-05T10:59:12.685Z,16.00
2022-10-05T11:02:02.049Z,15.97
2022-10-05T11:04:58.108Z,16.16
2022-10-05T11:07:36.265Z,16.25
2022-10-05T11:10:08.612Z,16.22
2022-10-05T11:13:09.131Z,16.25
2022-10-05T11:15:54.335Z,16.48
2022-10-05T11:18:47.886Z,16.62
2022-10-05T11:21:26.233Z,16.58
2022-10-05T11:24:13.391Z,16.60
2022-10-05T11:26:39.665Z,16.71
2022-10-05T11:29:39.655Z,16.70
2022-10-05T11:32:32.538Z,16.65
2022-10-05T11:35:36.383Z,16.66
2022-10-05T11:38:38.328Z,16.75
2022-10-05T11:41:26.023Z,16.79
2022-10-05T11:44:06.356Z,16.82
2022-10-05T11:46:52.358Z,16.79
2022-10-05T11:49:46.820Z,16.91
2022-10-05T11:52:18.034Z,16.88
2022-10-05T11:55:09.340Z,16.98
2022-10-05T11:57:39.981Z,17.34
2022-10-05T12:00:16.004Z,17.17
2022-10-05T12:03:23.648Z,17.11
2022-10-05T12:06:04.337Z,17.15
2022-10-05T12:08:43.715Z,17.06
2022-10-05T12:11:31.214Z,17.12
2022-10-05T12:14:05.027Z,17.28
2022-10-05T12:16:46.438Z,17.58
2022-10-05T12:19:24.206Z,17.63
2022-10-05T12:21:56.060Z,17.86
2022-10-05T12:24:54.388Z,17.84
2022-10-05T12:27:25.039Z,17.84
2022-10-05T12:30:02.384Z,17.88
2022-10-05T12:33:13.376Z,18.02
2022-10-05T12:35:52.334Z,18.23
2022-10-05T12:38:34.164Z,18.28
2022-10-05T12:41:03.135Z,18.14
2022-10-05T12:43:35.342Z,17.93
2022-10-05T12:46:17.594Z,18.09
2022-10-05T12:48:57.677Z,18.25
2022-10-05T12:51:29.751Z,18.64
2022-10-05T12:54:23.911Z,18.96
2022-10-05T12:57:05.545Z,18.93
2022-10-05T12:59:44.387Z,19.00
2022-10-05T13:02:35.680Z,19.02
2022-10-05T13:05:11.212Z,18.90
2022-10-05T13:08:04.591Z,18.91
2022-10-05T13:10:48.069Z,18.96
2022-10-05T13:13:38.506Z,18.75
2022-10-05T13:16:17.052Z,18.68
2022-10-05T13:19:13.109Z,18.57
2022-10-05T13:21:55.237Z,18.40
2022-10-05T13:24:43.724Z,18.28
2022-10-05T13:27:31.599Z,18.21
2022-10-05T13:30:06.210Z,18.12
2022-10-05T13:32:41.527Z,18.25
2022-10-05T13:35:38.711Z,18.30
2022-10-05T13:38:31.127Z,18.24
2022-10-05T13:41:14.687Z,18.21
2022-10-05T13:43:52.979Z,18.23
2022-10-05T13:46:40.571Z,18.26
2022-10-05T13:49:33.720Z,18.35
2022-10-05T13:52:19.923Z,18.44
2022-10-05T13:54:58.231Z,18.41
2022-10-05T13:57:43.267Z,18.38
2022-10-05T14:00:22.699Z,18.31
2022-10-05T14:02:55.447Z,18.19
2022-10-05T14:05:24.433Z,18.19
2022-10-05T14:07:52.573Z,18.20
2022-10-05T14:10:36.491Z,18.23
2022-10-05T14:13:19.504Z,18.32
2022-10-05T14:16:20.037Z,18.28
2022-10-05T14:19:17.661Z,18.26
2022-10-05T14:22:12.455Z,18.34
2022-10-05T14:24:51.714Z,18.33
2022-10-05T14:27:57.148Z,18.34
2022-10-05T14:30:29.631Z,18.31
2022-10-05T14:33:08.439Z,18.40
2022-10-05T14:35:47.328Z,18.53
2022-10-05T14:38:18.328Z,18.50
2022-10-05T14:40:44.733Z,18.39
2022-10-05T14:43:14.008Z,18.42
2022-10-05T14:45:54.917Z,18.44
2022-10-05T14:48:21.674Z,18.49
2022-10-05T14:50:54.005Z,18.41
2022-10-05T14:53:23.038Z,18.36
2022-10-05T14:56:08.198Z,18.34
2022-10-05T14:58:37.259Z,18.29
2022-10-05T15:01:29.436Z,18.30
2022-10-05T15:04:14.332Z,18.25
2022-10-05T15:06:59.504Z,18.20
2022-10-05T15:09:55.617Z,18.05
2022-10-05T15:12:31.818Z,18.02
2022-10-05T15:15:39.850Z,18.03
2022-10-05T15:18:14.689Z,17.99
2022-10-05T15:20:46.772Z,17.83
2022-10-05T15:23:28.278Z,17.87
2022-10-05T15:26:20.850Z,17.90
2022-10-05T15:29:00.008Z,17.92
2022-10-05T15:31:29.252Z,17.79
2022-10-05T15:34:04.855Z,17.80
2022-10-05T15:36:36.927Z,17.66
2022-10-05T15:39:18.914Z,17.60
2022-10-05T15:42:05.008Z,17.60
2022-10-05T15:45:05.554Z,17.46
2022-10-05T15:48:18.262Z,17.35
2022-10-05T15:51:14.584Z,17.33
2022-10-05T15:53:48.469Z,17.28
2022-10-05T15:56:30.063Z,17.24
2022-10-05T15:59:21.888Z,17.33
2022-10-05T16:01:54.447Z,17.36
2022-10-05T16:04:43.566Z,17.34
2022-10-05T16:07:20.384Z,17.11
2022-10-05T16:10:14.438Z,17.22
2022-10-05T16:13:12.206Z,17.12
2022-10-05T16:15:48.456Z,17.06
2022-10-05T16:18:44.291Z,17.07
2022-10-05T16:21:32.603Z,16.92
2022-10-05T16:24:05.766Z,16.95
2022-10-05T16:27:03.605Z,16.98
2022-10-05T16:29:47.064Z,17.07
2022-10-05T16:32:24.143Z,17.12
2022-10-05T16:34:57.578Z,17.10
2022-10-05T16:37:44.972Z,16.92
2022-10-05T16:40:28.727Z,16.80
2022-10-05T16:43:05.707Z,16.87
2022-10-05T16:45:48.087Z,16.83
2022-10-05T16:48:31.716Z,16.80
2022-10-05T16:51:06.391Z,16.79
2022-10-05T16:53:46.266Z,16.89
2022-10-05T16:56:19.887Z,16.91
2022-10-05T16:59:11.927Z,16.87
2022-10-05T17:02:24.909Z,17.01
2022-10-05T17:05:20.494Z,16.93
2022-10-05T17:07:56.833Z,16.76
2022-10-05T17:10:46.694Z,16.63
2022-10-05T17:13:43.404Z,16.75
2022-10-05T17:16:19.713Z,16.70
2022-10-05T17:19:09.993Z,16.69
2022-10-05T17:21:49.834Z,16.73
2022-10-05T17:24:42.638Z,16.71
2022-10-05T17:27:39.483Z,16.65
2022-10-05T17:30:26.795Z,16.65
2022-10-05T17:33:14.325Z,16.57
2022-10-05T17:35:42.496Z,16.56
2022-10-05T17:38:16.093Z,16.62
2022-10-05T17:41:17.509Z,16.58
2022-10-05T17:44:16.028Z,16.56
2022-10-05T17:46:50.423Z,16.64
2022-10-05T17:49:25.878Z,16.56
2022-10-05T17:51:52.159Z,16.59
2022-10-05T17:54:29.512Z,16.61
2022-10-05T17:56:55.802Z,16.62
2022-10-05T17:59:42.886Z,16.62
2022-10-05T18:02:36.901Z,16.57
2022-10-05T18:05:03.532Z,16.63
2022-10-05T18:07:32.207Z,16.66
2022-10-05T18:10:21.974Z,16.64
2022-10-05T18:13:33.721Z,16.69
2022-10-05T18:16:00.264Z,16.72
2022-10-05T18:18:43.072Z,16.72
2022-10-05T18:21:15.505Z,16.73
2022-10-05T18:23:54.046Z,16.70
2022-10-05T18:26:41.588Z,16.68
2022-10-05T18:29:34.456Z,16.53
2022-10-05T18:32:07.892Z,16.60
2022-10-05T18:34:45.349Z,16.63
2022-10-05T18:37:47.380Z,16.56
2022-10-05T18:40:31.711Z,16.57
2022-10-05T18:43:04.376Z,16.56
2022-10-05T18:45:45.755Z,16.47
2022-10-05T18:48:30.893Z,16.45
2022-10-05T18:51:04.239Z,16.43
2022-10-05T18:53:42.271Z,16.65
2022-10-05T18:56:28.319Z,16.67
2022-10-05T18:59:03.435Z,16.61
2022-10-05T19:01:56.273Z,16.58
2022-10-05T19:04:29.243Z,16.58
2022-10-05T19:07:03.356Z,16.60
2022-10-05T19:09:53.227Z,16.60
2022-10-05T19:12:44.983Z,16.60
2022-10-05T19:15:31.027Z,16.56
2022-10-05T19:18:22.276Z,16.54
2022-10-05T19:21:07.947Z,16.56
2022-10-05T19:23:44.087Z,16.69
2022-10-05T19:26:19.713Z,16.62
2022-10-05T19:29:25.051Z,16.62
2022-10-05T19:32:02.327Z,16.65
2022-10-05T19:34:48.593Z,16.69
2022-10-05T19:37:29.028Z,16.71
2022-10-05T19:40:20.133Z,16.79
2022-10-05T19:43:07.443Z,16.73
2022-10-05T19:45:40.890Z,16.80
2022-10-05T19:48:39.719Z,16.55
2022-10-05T19:51:13.706Z,16.63
2022-10-05T19:53:45.603Z,16.62
2022-10-05T19:56:20.887Z,16.56
2022-10-05T19:58:49.554Z,16.59
2022-10-05T20:01:25.717Z,16.66
2022-10-05T20:03:53.344Z,16.67
2022-10-05T20:06:21.071Z,16.68
2022-10-05T20:08:49.794Z,16.62
2022-10-05T20:11:21.984Z,16.64
2022-10-05T20:13:54.057Z,16.62
2022-10-05T20:16:33.426Z,16.60
2022-10-05T20:18:59.871Z,16.58
2022-10-05T20:21:41.612Z,16.48
2022-10-05T20:24:12.858Z,16.57
2022-10-05T20:26:49.325Z,16.40
2022-10-05T20:29:15.656Z,16.52
2022-10-05T20:31:42.026Z,16.33
2022-10-05T20:34:08.326Z,16.29
2022-10-05T20:36:34.656Z,16.32
2022-10-05T20:39:00.982Z,16.30
2022-10-05T20:41:27.277Z,16.25
2022-10-05T20:43:55.823Z,16.22
2022-10-05T20:46:22.359Z,16.13
2022-10-05T20:48:48.709Z,16.11
2022-10-05T20:51:15.014Z,16.18
2022-10-05T20:53:41.340Z,16.15
2022-10-05T20:56:07.664Z,16.24
2022-10-05T20:58:34.000Z,16.36
2022-10-05T21:01:00.322Z,16.46
2022-10-05T21:03:26.666Z,16.48
2022-10-05T21:05:52.981Z,16.47
2022-10-05T21:08:19.310Z,16.60
2022-10-05T21:10:45.640Z,16.64
2022-10-05T21:13:11.944Z,16.55
2022-10-05T21:15:38.276Z,16.64
2022-10-05T21:18:04.657Z,16.62
2022-10-05T21:20:30.983Z,16.67
2022-10-05T21:22:57.308Z,16.63
2022-10-05T21:25:23.648Z,16.61
2022-10-05T21:27:49.984Z,16.47
2022-10-05T21:30:16.284Z,16.51
2022-10-05T21:32:44.705Z,16.57
2022-10-05T21:35:11.333Z,16.34
2022-10-05T21:37:37.653Z,16.34
2022-10-05T21:40:04.520Z,16.33
2022-10-05T21:42:31.196Z,16.26
2022-10-05T21:44:57.549Z,16.26
2022-10-05T21:47:23.908Z,16.26
2022-10-05T21:49:50.272Z,16.26
2022-10-05T21:52:16.629Z,16.26
2022-10-05T21:54:43.024Z,16.39
2022-10-05T21:57:12.073Z,16.37
2022-10-05T21:59:39.401Z,16.32
2022-10-05T22:02:05.919Z,16.37
2022-10-05T22:04:32.218Z,16.42
2022-10-05T22:06:58.555Z,16.39
2022-10-05T22:09:24.965Z,16.45
2022-10-05T22:11:51.366Z,16.57
2022-10-05T22:14:17.798Z,16.55
2022-10-05T22:16:44.542Z,16.53
2022-10-05T22:19:17.941Z,16.40
2022-10-05T22:21:44.367Z,16.51
2022-10-05T22:24:10.772Z,16.67
2022-10-05T22:26:37.653Z,16.75
2022-10-05T22:29:04.106Z,16.75
2022-10-05T22:31:30.470Z,16.65
2022-10-05T22:33:56.855Z,16.61
2022-10-05T22:36:23.334Z,16.69
2022-10-05T22:38:49.659Z,16.78
2022-10-05T22:41:16.031Z,16.68
2022-10-05T22:43:42.359Z,16.76
2022-10-05T22:46:12.263Z,16.69
2022-10-05T22:48:39.398Z,16.90
2022-10-05T22:51:05.851Z,16.91
2022-10-05T22:53:32.251Z,16.79
2022-10-05T22:56:07.615Z,16.80
2022-10-05T22:58:33.938Z,16.94
2022-10-05T23:01:05.055Z,16.97
2022-10-05T23:03:32.609Z,16.84
2022-10-05T23:06:04.503Z,16.94
2022-10-05T23:08:32.389Z,16.94
2022-10-05T23:11:19.622Z,16.89
2022-10-05T23:13:45.951Z,17.08
2022-10-05T23:16:18.101Z,16.96
2022-10-05T23:18:47.162Z,16.93
2022-10-05T23:21:13.526Z,16.81
2022-10-05T23:23:41.891Z,16.90
2022-10-05T23:26:10.159Z,16.95
2022-10-05T23:28:39.347Z,16.55
2022-10-05T23:31:07.189Z,15.05
2022-10-05T23:33:34.153Z,14.22
2022-10-05T23:36:21.258Z,13.98
2022-10-05T23:38:48.219Z,13.64
2022-10-05T23:41:15.468Z,13.61
2022-10-05T23:43:42.690Z,13.30
2022-10-05T23:46:09.876Z,13.22
2022-10-05T23:48:37.018Z,13.08
2022-10-05T23:51:04.740Z,12.79
2022-10-05T23:53:31.095Z,12.61
2022-10-05T23:55:57.435Z,12.44
2022-10-05T23:58:24.279Z,12.34
